Portada
METAR-TAF:

METAR-TAF

Aeroports :

Münster-Osnabrück, Alemanya

latitud: 52-08N, longitud: 007-42E, altitud: 48 m

Observació

L'informe es va fer fa 8 minuts, a les 10:20 UTC
Vent 8 kt del Nord/Nord-Oest, variant entre Oest/Nord-Oest i Nord
Temperatura 19°C
Humitat 56%
Pressió 1028 hPa
Visibilitat 10 km o més
Núvols disperses a una alçada de 4000 ft

METAR: EDDG 121020Z 34008KT 300V010 9999 SCT040 19/10 Q1028 NOSIG

Hora: 12:28 (10:28 UTC)

Pronòstic

L'informe es va fer fa 5 hores i 28 minuts, a les 05:00 UTC
Pronòstic vàlid del 12 a les 06 UTC al 13 a les 06 UTC
Vent 4 kt del Nord
Visibilitat 10 km o més
sense núvols per sota de 1500 mi sense presència de cumulonimbus.

TAF: EDDG 120500Z 1206/1306 35004KT CAVOK

Observacions i pronòstics meteorològics de més de 4000 aeroports (METAR i TAF).

Les estacions disponibles són els punts grocs i vermells al mapa.

Posi el ratolí al punt desitjat per veure el nom de l'estació.

Feu clic per veure les observacions i els pronòstics meteorològics.

Per canviar el mapa: feu clic els botons verds amb una creu de color negre per apropar; al botó verd amb un guió per allunyar la imatge; o en les fletxes verdes per a mapes adjacents.


METAR-TAF: